createdAt,value
2023-02-28T00:01:58.658Z,69.93
2023-02-28T00:04:27.421Z,70.20
2023-02-28T00:06:56.383Z,67.20
2023-02-28T00:09:25.288Z,68.11
2023-02-28T00:11:54.944Z,67.87
2023-02-28T00:14:23.676Z,64.16
2023-02-28T00:16:52.857Z,63.65
2023-02-28T00:19:21.683Z,62.50
2023-02-28T00:21:50.616Z,60.72
2023-02-28T00:24:19.590Z,61.32
2023-02-28T00:26:48.626Z,62.80
2023-02-28T00:29:17.386Z,63.30
2023-02-28T00:31:46.594Z,63.75
2023-02-28T00:34:15.402Z,62.84
2023-02-28T00:36:47.326Z,63.18
2023-02-28T00:39:16.589Z,65.81
2023-02-28T00:41:46.137Z,66.08
2023-02-28T00:44:16.163Z,66.99
2023-02-28T00:46:44.932Z,67.14
2023-02-28T00:49:14.019Z,69.05
2023-02-28T00:51:44.667Z,71.13
2023-02-28T00:54:13.604Z,70.98
2023-02-28T00:56:42.479Z,70.82
2023-02-28T00:59:13.093Z,70.07
2023-02-28T01:01:46.403Z,70.33
2023-02-28T01:04:18.214Z,69.10
2023-02-28T01:06:49.825Z,70.27
2023-02-28T01:09:20.086Z,70.66
2023-02-28T01:11:50.110Z,72.86
2023-02-28T01:14:21.605Z,74.86
2023-02-28T01:16:51.846Z,77.62
2023-02-28T01:19:22.476Z,78.39
2023-02-28T01:21:53.282Z,79.03
2023-02-28T01:24:23.446Z,79.76
2023-02-28T01:26:53.569Z,80.25
2023-02-28T01:29:24.511Z,80.37
2023-02-28T01:31:55.884Z,80.88
2023-02-28T01:34:25.595Z,81.22
2023-02-28T01:36:55.214Z,81.61
2023-02-28T01:39:25.364Z,81.33
2023-02-28T01:41:55.609Z,81.85
2023-02-28T01:45:02.682Z,82.11
2023-02-28T01:47:41.956Z,82.25
2023-02-28T01:50:17.641Z,82.81
2023-02-28T01:52:49.664Z,82.88
2023-02-28T01:55:23.014Z,82.92
2023-02-28T01:57:56.815Z,83.17
2023-02-28T02:00:32.096Z,83.51
2023-02-28T02:03:16.936Z,83.17
2023-02-28T02:05:49.655Z,83.44
2023-02-28T02:08:25.506Z,83.01
2023-02-28T02:11:04.664Z,82.70
2023-02-28T02:14:22.513Z,82.42
2023-02-28T02:17:01.399Z,82.47
2023-02-28T02:20:18.900Z,81.90
2023-02-28T02:23:14.616Z,82.67
2023-02-28T02:25:55.675Z,82.64
2023-02-28T02:28:38.464Z,82.33
2023-02-28T02:31:29.633Z,80.94
2023-02-28T02:34:17.988Z,80.30
2023-02-28T02:37:11.402Z,80.56
2023-02-28T02:39:56.817Z,80.63
2023-02-28T02:42:47.285Z,80.89
2023-02-28T02:45:27.805Z,81.38
2023-02-28T02:48:02.421Z,81.31
2023-02-28T02:50:39.619Z,80.75
2023-02-28T02:53:11.812Z,79.99
2023-02-28T02:55:46.390Z,79.39
2023-02-28T02:58:24.854Z,78.56
2023-02-28T03:01:00.820Z,78.24
2023-02-28T03:03:32.301Z,77.53
2023-02-28T03:06:03.811Z,77.08
2023-02-28T03:08:39.115Z,76.22
2023-02-28T03:11:16.061Z,75.71
2023-02-28T03:14:02.171Z,76.17
2023-02-28T03:16:59.071Z,75.99
2023-02-28T03:19:44.301Z,75.92
2023-02-28T03:22:38.768Z,75.55
2023-02-28T03:25:40.449Z,76.16
2023-02-28T03:28:41.714Z,76.96
2023-02-28T03:31:48.525Z,76.69
2023-02-28T03:34:41.391Z,75.79
2023-02-28T03:37:18.005Z,75.11
2023-02-28T03:39:54.425Z,75.66
2023-02-28T03:42:28.591Z,73.52
2023-02-28T03:45:05.170Z,74.20
2023-02-28T03:47:48.142Z,72.27
2023-02-28T03:50:37.730Z,71.75
2023-02-28T03:53:16.698Z,72.19
2023-02-28T03:55:54.909Z,71.60
2023-02-28T03:58:44.903Z,71.69
2023-02-28T04:01:26.651Z,71.81
2023-02-28T04:03:56.702Z,72.14
2023-02-28T04:06:27.149Z,70.81
2023-02-28T04:08:56.982Z,70.43
2023-02-28T04:11:37.414Z,69.93
2023-02-28T04:14:08.449Z,69.47
2023-02-28T04:16:41.944Z,69.64
2023-02-28T04:19:14.658Z,69.63
2023-02-28T04:21:55.676Z,69.38
2023-02-28T04:24:30.330Z,70.20
2023-02-28T04:27:00.879Z,70.20
2023-02-28T04:29:33.743Z,69.70
2023-02-28T04:32:04.736Z,69.22
2023-02-28T04:34:34.859Z,69.85
2023-02-28T04:37:13.986Z,68.61
2023-02-28T04:39:44.136Z,67.39
2023-02-28T04:42:14.516Z,67.89
2023-02-28T04:44:43.764Z,67.71
2023-02-28T04:47:12.482Z,67.75
2023-02-28T04:49:43.317Z,68.47
2023-02-28T04:52:12.560Z,68.58
2023-02-28T04:54:41.761Z,68.70
2023-02-28T04:57:10.747Z,68.39
2023-02-28T04:59:39.593Z,67.42
2023-02-28T05:02:08.792Z,67.50
2023-02-28T05:04:38.169Z,67.39
2023-02-28T05:07:07.220Z,67.18
2023-02-28T05:09:36.586Z,66.10
2023-02-28T05:12:05.602Z,66.68
2023-02-28T05:14:34.579Z,65.98
2023-02-28T05:17:03.489Z,66.52
2023-02-28T05:19:32.344Z,65.16
2023-02-28T05:22:01.526Z,63.65
2023-02-28T05:24:30.473Z,63.76
2023-02-28T05:26:59.958Z,62.70
2023-02-28T05:29:28.655Z,63.40
2023-02-28T05:31:57.683Z,63.68
2023-02-28T05:34:26.564Z,62.02
2023-02-28T05:36:55.554Z,61.94
2023-02-28T05:39:24.547Z,59.91
2023-02-28T05:41:53.552Z,60.61
2023-02-28T05:44:22.384Z,61.42
2023-02-28T05:46:51.345Z,60.25
2023-02-28T05:49:20.350Z,61.13
2023-02-28T05:51:49.351Z,59.37
2023-02-28T05:54:18.381Z,58.35
2023-02-28T05:56:47.773Z,58.33
2023-02-28T05:59:16.550Z,58.37
2023-02-28T06:01:50.124Z,57.32
2023-02-28T06:04:31.455Z,58.61
2023-02-28T06:07:01.265Z,59.24
2023-02-28T06:09:30.372Z,60.17
2023-02-28T06:12:05.639Z,58.97
2023-02-28T06:14:36.133Z,59.39
2023-02-28T06:17:06.154Z,60.15
2023-02-28T06:19:35.659Z,58.61
2023-02-28T06:22:04.456Z,58.97
2023-02-28T06:24:33.595Z,58.42
2023-02-28T06:27:09.967Z,56.17
2023-02-28T06:29:41.806Z,56.42
2023-02-28T06:32:11.367Z,56.26
2023-02-28T06:34:40.254Z,56.35
2023-02-28T06:37:09.319Z,55.12
2023-02-28T06:39:38.353Z,55.42
2023-02-28T06:42:07.575Z,55.06
2023-02-28T06:44:39.874Z,54.11
2023-02-28T06:47:09.041Z,54.17
2023-02-28T06:49:38.756Z,54.40
2023-02-28T06:52:08.089Z,55.01
2023-02-28T06:54:38.472Z,55.70
2023-02-28T06:57:07.546Z,54.86
2023-02-28T06:59:37.220Z,55.10
2023-02-28T07:02:08.393Z,56.04
2023-02-28T07:04:37.433Z,55.99
2023-02-28T07:07:06.230Z,56.35
2023-02-28T07:09:35.269Z,56.43
2023-02-28T07:12:04.300Z,57.18
2023-02-28T07:14:33.257Z,56.95
2023-02-28T07:17:02.063Z,56.51
2023-02-28T07:19:32.357Z,57.20
2023-02-28T07:22:01.628Z,57.15
2023-02-28T07:24:31.294Z,57.47
2023-02-28T07:27:01.315Z,58.07
2023-02-28T07:29:30.183Z,58.56
2023-02-28T07:32:00.204Z,59.21
2023-02-28T07:34:29.781Z,59.55
2023-02-28T07:36:59.001Z,60.02
2023-02-28T07:39:27.747Z,60.02
2023-02-28T07:41:56.784Z,60.09
2023-02-28T07:44:28.983Z,60.67
2023-02-28T07:46:58.252Z,60.98
2023-02-28T07:49:27.110Z,61.33
2023-02-28T07:51:56.310Z,61.00
2023-02-28T07:54:25.253Z,61.37
2023-02-28T07:56:54.303Z,61.68
2023-02-28T07:59:23.127Z,62.07
2023-02-28T08:01:52.814Z,62.39
2023-02-28T08:04:21.823Z,62.70
2023-02-28T08:06:53.945Z,62.98
2023-02-28T08:09:23.099Z,63.22
2023-02-28T08:11:51.910Z,63.33
2023-02-28T08:14:20.932Z,63.21
2023-02-28T08:16:49.803Z,63.20
2023-02-28T08:19:19.669Z,62.59
2023-02-28T08:22:02.514Z,61.89
2023-02-28T08:24:31.644Z,60.82
2023-02-28T08:27:00.479Z,60.79
2023-02-28T08:29:29.673Z,60.30
2023-02-28T08:31:58.975Z,58.79
2023-02-28T08:34:27.964Z,58.05
2023-02-28T08:36:56.875Z,57.13
2023-02-28T08:39:26.034Z,57.44
2023-02-28T08:42:06.745Z,56.62
2023-02-28T08:44:36.747Z,55.17
2023-02-28T08:47:05.880Z,56.32
2023-02-28T08:49:35.080Z,55.99
2023-02-28T08:52:03.920Z,55.42
2023-02-28T08:54:34.043Z,53.81
2023-02-28T08:57:03.379Z,54.54
2023-02-28T08:59:32.736Z,53.31
2023-02-28T09:02:01.834Z,52.98
2023-02-28T09:04:34.053Z,52.11
2023-02-28T09:07:03.236Z,51.70
2023-02-28T09:09:32.076Z,51.14
2023-02-28T09:12:01.454Z,51.01
2023-02-28T09:14:30.546Z,52.30
2023-02-28T09:17:00.306Z,52.57
2023-02-28T09:19:29.363Z,52.39
2023-02-28T09:21:58.387Z,52.68
2023-02-28T09:24:27.188Z,53.01
2023-02-28T09:27:04.511Z,52.96
2023-02-28T09:29:35.918Z,54.75
2023-02-28T09:32:07.784Z,55.40
2023-02-28T09:34:38.797Z,54.31
2023-02-28T09:37:10.375Z,54.21
2023-02-28T09:39:39.546Z,53.90
2023-02-28T09:42:16.451Z,53.91
2023-02-28T09:44:49.440Z,54.10
2023-02-28T09:47:43.153Z,54.16
2023-02-28T09:50:40.036Z,54.31
2023-02-28T09:53:36.715Z,54.07
2023-02-28T09:56:11.399Z,54.53
2023-02-28T09:58:50.743Z,54.26
2023-02-28T10:01:47.877Z,51.67
2023-02-28T10:04:40.996Z,53.59
2023-02-28T10:07:56.895Z,55.00
2023-02-28T10:10:32.269Z,55.81
2023-02-28T10:13:07.779Z,55.86
2023-02-28T10:15:39.135Z,54.28
2023-02-28T10:18:17.042Z,53.22
2023-02-28T10:20:47.456Z,53.04
2023-02-28T10:23:36.864Z,51.72
2023-02-28T10:26:25.986Z,51.53
2023-02-28T10:28:55.804Z,52.05
2023-02-28T10:31:26.304Z,51.52
2023-02-28T10:33:55.754Z,51.97
2023-02-28T10:36:24.863Z,52.47
2023-02-28T10:38:56.782Z,52.96
2023-02-28T10:41:36.552Z,52.83
2023-02-28T10:44:31.539Z,52.66
2023-02-28T10:47:02.095Z,52.38
2023-02-28T10:49:31.732Z,52.95
2023-02-28T10:52:02.845Z,52.43
2023-02-28T10:54:39.665Z,52.10
2023-02-28T10:57:22.540Z,52.89
2023-02-28T11:00:07.656Z,52.63
2023-02-28T11:02:39.585Z,51.89
2023-02-28T11:05:32.119Z,51.32
2023-02-28T11:08:21.466Z,51.84
2023-02-28T11:10:58.001Z,53.20
2023-02-28T11:13:41.849Z,52.84
2023-02-28T11:16:14.552Z,53.00
2023-02-28T11:18:47.105Z,51.80
2023-02-28T11:21:27.289Z,52.58
2023-02-28T11:24:07.474Z,53.09
2023-02-28T11:26:46.366Z,53.53
2023-02-28T11:29:22.962Z,54.04
2023-02-28T11:32:18.226Z,54.16
2023-02-28T11:34:49.376Z,54.35
2023-02-28T11:37:21.714Z,54.50
2023-02-28T11:39:50.857Z,55.01
2023-02-28T11:42:39.392Z,55.86
2023-02-28T11:45:19.939Z,55.11
2023-02-28T11:48:04.676Z,55.53
2023-02-28T11:51:06.139Z,55.68
2023-02-28T11:53:46.811Z,56.21
2023-02-28T11:56:29.019Z,56.54
2023-02-28T11:59:39.304Z,56.91
2023-02-28T12:02:30.279Z,57.85
2023-02-28T12:05:33.045Z,58.41
2023-02-28T12:08:15.096Z,59.65
2023-02-28T12:11:28.913Z,59.54
2023-02-28T12:14:11.945Z,59.63
2023-02-28T12:17:06.564Z,60.11
2023-02-28T12:19:45.651Z,60.92
2023-02-28T12:22:28.252Z,61.29
2023-02-28T12:25:09.269Z,61.56
2023-02-28T12:27:44.895Z,61.91
2023-02-28T12:30:43.600Z,62.19
2023-02-28T12:33:16.903Z,62.43
2023-02-28T12:35:53.262Z,62.68
2023-02-28T12:38:26.815Z,63.33
2023-02-28T12:41:03.656Z,63.34
2023-02-28T12:43:40.634Z,63.73
2023-02-28T12:46:27.870Z,64.05
2023-02-28T12:49:01.197Z,64.49
2023-02-28T12:51:31.794Z,64.97
2023-02-28T12:54:28.753Z,63.95
2023-02-28T12:57:20.704Z,64.66
2023-02-28T13:00:00.525Z,65.75
2023-02-28T13:03:01.979Z,66.95
2023-02-28T13:06:06.804Z,67.04
2023-02-28T13:08:50.686Z,66.97
2023-02-28T13:11:44.712Z,66.50
2023-02-28T13:14:37.803Z,66.69
2023-02-28T13:17:14.605Z,67.10
2023-02-28T13:19:43.816Z,67.21
2023-02-28T13:22:42.098Z,66.94
2023-02-28T13:25:44.302Z,67.74
2023-02-28T13:28:16.406Z,67.65
2023-02-28T13:30:57.513Z,67.04
2023-02-28T13:33:59.901Z,67.39
2023-02-28T13:36:32.109Z,67.89
2023-02-28T13:39:04.008Z,67.63
2023-02-28T13:41:36.314Z,67.44
2023-02-28T13:44:20.208Z,66.81
2023-02-28T13:46:52.778Z,66.96
2023-02-28T13:49:27.405Z,66.88
2023-02-28T13:52:05.104Z,66.76
2023-02-28T13:55:04.691Z,66.67
2023-02-28T13:58:03.890Z,66.65
2023-02-28T14:01:18.997Z,66.74
2023-02-28T14:03:59.972Z,66.47
2023-02-28T14:06:39.206Z,66.66
2023-02-28T14:09:19.893Z,66.29
2023-02-28T14:11:49.247Z,66.43
2023-02-28T14:14:39.506Z,67.07
2023-02-28T14:17:16.188Z,67.63
2023-02-28T14:19:51.597Z,67.76
2023-02-28T14:22:39.109Z,67.88
2023-02-28T14:25:46.155Z,68.15
2023-02-28T14:28:21.548Z,68.67
2023-02-28T14:30:51.944Z,68.79
2023-02-28T14:33:37.322Z,68.44
2023-02-28T14:36:18.539Z,68.71
2023-02-28T14:39:08.861Z,68.12
2023-02-28T14:41:41.486Z,68.35
2023-02-28T14:44:16.340Z,68.59
2023-02-28T14:46:47.513Z,68.60
2023-02-28T14:49:27.998Z,68.87
2023-02-28T14:52:22.891Z,68.56
2023-02-28T14:55:00.718Z,69.10
2023-02-28T14:57:35.869Z,69.07
2023-02-28T15:00:24.992Z,68.86
2023-02-28T15:02:55.186Z,69.68
2023-02-28T15:05:35.760Z,69.75
2023-02-28T15:08:07.731Z,70.58
2023-02-28T15:10:37.169Z,69.83
2023-02-28T15:13:14.466Z,69.75
2023-02-28T15:16:03.332Z,70.32
2023-02-28T15:18:59.245Z,70.33
2023-02-28T15:21:40.736Z,70.46
2023-02-28T15:24:18.369Z,70.58
2023-02-28T15:26:53.150Z,71.50
2023-02-28T15:29:26.000Z,71.56
2023-02-28T15:32:03.341Z,71.84
2023-02-28T15:34:44.300Z,71.10
2023-02-28T15:37:39.545Z,70.79
2023-02-28T15:40:39.006Z,70.39
2023-02-28T15:43:41.949Z,70.22
2023-02-28T15:46:14.322Z,70.57
2023-02-28T15:48:53.386Z,71.17
2023-02-28T15:51:32.066Z,71.40
2023-02-28T15:54:17.306Z,71.59
2023-02-28T15:56:49.614Z,72.06
2023-02-28T15:59:28.654Z,72.42
2023-02-28T16:02:12.604Z,72.79
2023-02-28T16:05:08.885Z,73.27
2023-02-28T16:07:45.771Z,73.01
2023-02-28T16:10:18.454Z,72.45
2023-02-28T16:12:47.731Z,72.60
2023-02-28T16:15:31.112Z,71.83
2023-02-28T16:18:00.506Z,71.36
2023-02-28T16:20:32.756Z,71.38
2023-02-28T16:23:04.795Z,70.65
2023-02-28T16:25:46.146Z,71.18
2023-02-28T16:28:33.208Z,71.26
2023-02-28T16:31:07.234Z,72.08
2023-02-28T16:33:36.632Z,73.01
2023-02-28T16:36:05.904Z,72.81
2023-02-28T16:38:36.015Z,71.25
2023-02-28T16:41:05.058Z,71.46
2023-02-28T16:43:34.246Z,69.91
2023-02-28T16:46:05.596Z,69.58
2023-02-28T16:48:34.651Z,69.01
2023-02-28T16:51:06.236Z,68.27
2023-02-28T16:53:35.316Z,68.75
2023-02-28T16:56:04.220Z,68.95
2023-02-28T16:58:33.330Z,69.17
2023-02-28T17:01:02.271Z,68.99
2023-02-28T17:03:33.541Z,68.78
2023-02-28T17:06:03.526Z,68.93
2023-02-28T17:08:33.997Z,68.94
2023-02-28T17:11:04.603Z,69.00
2023-02-28T17:13:36.358Z,69.16
2023-02-28T17:16:05.808Z,69.49
2023-02-28T17:18:36.554Z,71.10
2023-02-28T17:21:05.820Z,72.71
2023-02-28T17:23:34.608Z,72.25
2023-02-28T17:26:03.520Z,72.45
2023-02-28T17:28:32.328Z,72.08
2023-02-28T17:31:01.546Z,73.10
2023-02-28T17:33:30.488Z,73.16
2023-02-28T17:35:59.786Z,73.83
2023-02-28T17:38:28.644Z,72.78
2023-02-28T17:40:59.242Z,72.53
2023-02-28T17:43:29.297Z,72.40
2023-02-28T17:45:58.494Z,72.80
2023-02-28T17:48:27.973Z,74.66
2023-02-28T17:50:56.846Z,74.81
2023-02-28T17:53:26.053Z,74.30
2023-02-28T17:55:54.863Z,76.39
2023-02-28T17:58:23.788Z,77.06
2023-02-28T18:00:55.748Z,76.14
2023-02-28T18:03:26.201Z,75.38
2023-02-28T18:05:55.957Z,74.61
2023-02-28T18:08:26.175Z,76.13
2023-02-28T18:10:55.202Z,79.05
2023-02-28T18:13:23.932Z,79.87
2023-02-28T18:15:53.327Z,79.79
2023-02-28T18:18:22.331Z,78.39
2023-02-28T18:20:51.816Z,78.79
2023-02-28T18:23:22.418Z,79.11
2023-02-28T18:25:51.480Z,79.45
2023-02-28T18:28:20.194Z,80.71
2023-02-28T18:30:49.100Z,82.26
2023-02-28T18:33:18.216Z,82.79
2023-02-28T18:35:47.183Z,83.11
2023-02-28T18:38:22.023Z,83.87
2023-02-28T18:41:02.955Z,84.77
2023-02-28T18:43:33.844Z,86.45
2023-02-28T18:46:08.020Z,86.18
2023-02-28T18:48:37.925Z,86.40
2023-02-28T18:51:13.769Z,85.87
2023-02-28T18:53:44.389Z,85.17
2023-02-28T18:56:16.393Z,85.21
2023-02-28T18:58:46.003Z,83.91
2023-02-28T19:01:27.869Z,83.79
2023-02-28T19:03:57.701Z,83.14
2023-02-28T19:06:26.458Z,82.92
2023-02-28T19:08:56.906Z,83.58
2023-02-28T19:11:27.233Z,83.19
2023-02-28T19:13:57.202Z,82.62
2023-02-28T19:16:28.777Z,83.29
2023-02-28T19:18:58.595Z,82.79
2023-02-28T19:21:27.998Z,82.99
2023-02-28T19:23:56.955Z,84.04
2023-02-28T19:26:28.085Z,84.13
2023-02-28T19:28:57.459Z,84.05
2023-02-28T19:31:46.963Z,83.61
2023-02-28T19:34:16.160Z,83.88
2023-02-28T19:36:44.915Z,83.83
2023-02-28T19:39:13.820Z,83.71
2023-02-28T19:41:42.630Z,83.60
2023-02-28T19:44:11.712Z,83.11
2023-02-28T19:46:40.786Z,82.78
2023-02-28T19:49:10.538Z,81.86
2023-02-28T19:51:39.752Z,82.48
2023-02-28T19:54:08.683Z,83.39
2023-02-28T19:56:37.655Z,82.50
2023-02-28T19:59:13.038Z,82.10
2023-02-28T20:01:50.841Z,82.68
2023-02-28T20:04:19.504Z,82.47
2023-02-28T20:06:48.517Z,82.97
2023-02-28T20:09:17.691Z,83.02
2023-02-28T20:11:47.854Z,82.96
2023-02-28T20:14:18.708Z,82.60
2023-02-28T20:16:48.106Z,82.30
2023-02-28T20:19:16.842Z,82.39
2023-02-28T20:21:46.387Z,81.61
2023-02-28T20:24:15.131Z,81.43
2023-02-28T20:26:44.199Z,81.21
2023-02-28T20:29:12.978Z,80.55
2023-02-28T20:31:42.089Z,80.43
2023-02-28T20:34:10.893Z,80.47
2023-02-28T20:36:40.035Z,80.52
2023-02-28T20:39:08.934Z,80.47
2023-02-28T20:41:38.002Z,81.04
2023-02-28T20:44:07.497Z,80.19
2023-02-28T20:46:36.636Z,80.25
2023-02-28T20:49:05.573Z,80.02
2023-02-28T20:51:34.850Z,80.01
2023-02-28T20:54:05.414Z,79.17
2023-02-28T20:56:35.196Z,79.59
2023-02-28T20:59:04.409Z,79.02
2023-02-28T21:01:33.434Z,79.04
2023-02-28T21:04:07.175Z,78.93
2023-02-28T21:06:41.170Z,79.58
2023-02-28T21:09:11.583Z,79.24
2023-02-28T21:11:41.058Z,78.97
2023-02-28T21:14:14.793Z,78.58
2023-02-28T21:16:45.338Z,78.21
2023-02-28T21:19:14.498Z,78.62
2023-02-28T21:21:45.379Z,79.19
2023-02-28T21:24:17.317Z,78.95
2023-02-28T21:26:47.993Z,78.09
2023-02-28T21:29:17.343Z,78.38
2023-02-28T21:31:46.203Z,78.17
2023-02-28T21:34:15.259Z,78.11
2023-02-28T21:36:48.574Z,77.93
2023-02-28T21:39:20.767Z,78.69
2023-02-28T21:41:49.873Z,78.71
2023-02-28T21:44:23.522Z,79.24
2023-02-28T21:46:57.633Z,78.98
2023-02-28T21:49:26.706Z,80.33
2023-02-28T21:51:55.430Z,80.24
2023-02-28T21:54:24.643Z,80.25
2023-02-28T21:56:53.544Z,79.84
2023-02-28T21:59:22.754Z,80.49
2023-02-28T22:01:52.595Z,80.43
2023-02-28T22:04:24.572Z,80.61
2023-02-28T22:06:58.171Z,81.37
2023-02-28T22:09:27.453Z,81.90
2023-02-28T22:11:57.136Z,82.11
2023-02-28T22:14:26.281Z,82.03
2023-02-28T22:16:57.645Z,83.05
2023-02-28T22:19:28.425Z,83.43
2023-02-28T22:21:58.331Z,83.39
2023-02-28T22:24:27.138Z,84.01
2023-02-28T22:26:56.288Z,84.62
2023-02-28T22:29:25.286Z,85.62
2023-02-28T22:31:54.276Z,87.25
2023-02-28T22:34:22.910Z,87.18
2023-02-28T22:36:51.733Z,86.60
2023-02-28T22:39:20.291Z,86.19
2023-02-28T22:41:49.145Z,86.37
2023-02-28T22:44:17.740Z,87.13
2023-02-28T22:46:46.676Z,88.63
2023-02-28T22:49:15.329Z,87.00
2023-02-28T22:51:44.296Z,87.27
2023-02-28T22:54:12.990Z,86.86
2023-02-28T22:56:41.959Z,87.64
2023-02-28T22:59:15.471Z,87.51
2023-02-28T23:01:45.528Z,86.95
2023-02-28T23:04:14.254Z,86.73
2023-02-28T23:06:45.249Z,87.37
2023-02-28T23:09:19.505Z,87.27
2023-02-28T23:11:50.849Z,86.35
2023-02-28T23:14:21.266Z,85.40
2023-02-28T23:16:57.251Z,84.20
2023-02-28T23:19:30.403Z,83.53
2023-02-28T23:22:01.093Z,82.71
2023-02-28T23:24:33.030Z,82.52
2023-02-28T23:27:05.761Z,82.60
2023-02-28T23:29:36.130Z,82.29
2023-02-28T23:32:05.225Z,81.81
2023-02-28T23:34:34.218Z,81.88
2023-02-28T23:37:03.594Z,81.65
2023-02-28T23:39:32.972Z,81.32
2023-02-28T23:42:02.684Z,80.53
2023-02-28T23:44:31.653Z,80.35
2023-02-28T23:47:00.533Z,79.99
2023-02-28T23:49:29.150Z,80.39
2023-02-28T23:51:58.502Z,81.60
2023-02-28T23:54:27.104Z,83.54
2023-02-28T23:56:55.902Z,84.39
2023-02-28T23:59:24.469Z,84.36
